createdAt,value
2023-04-06T00:00:10.482Z,17.9560
2023-04-06T00:00:21.523Z,17.9560
2023-04-06T00:00:32.588Z,17.9460
2023-04-06T00:00:43.630Z,17.9560
2023-04-06T00:00:54.691Z,17.9560
2023-04-06T00:01:05.745Z,17.9510
2023-04-06T00:01:16.824Z,17.9560
2023-04-06T00:01:27.876Z,17.9620
2023-04-06T00:01:38.934Z,17.9560
2023-04-06T00:01:50.011Z,17.9560
2023-04-06T00:02:01.061Z,17.9670
2023-04-06T00:02:12.257Z,17.9620
2023-04-06T00:02:23.383Z,17.9820
2023-04-06T00:02:34.546Z,17.9870
2023-04-06T00:02:45.725Z,17.9720
2023-04-06T00:02:56.784Z,17.9590
2023-04-06T00:03:07.960Z,17.9690
2023-04-06T00:03:19.159Z,17.9740
2023-04-06T00:03:30.356Z,17.9840
2023-04-06T00:03:41.582Z,17.9950
2023-04-06T00:03:52.750Z,17.9840
2023-04-06T00:04:03.815Z,17.9950
2023-04-06T00:04:15.088Z,18.0000
2023-04-06T00:04:26.386Z,17.9950
2023-04-06T00:04:37.412Z,18.0100
2023-04-06T00:04:48.486Z,18.0050
2023-04-06T00:04:59.569Z,18.0050
2023-04-06T00:05:10.640Z,18.0100
2023-04-06T00:05:21.692Z,18.0100
2023-04-06T00:05:32.734Z,18.0150
2023-04-06T00:05:43.813Z,18.0100
2023-04-06T00:05:54.856Z,18.0240
2023-04-06T00:06:05.923Z,18.0140
2023-04-06T00:06:17.442Z,18.0230
2023-04-06T00:06:28.534Z,18.0330
2023-04-06T00:06:39.603Z,18.0230
2023-04-06T00:06:50.693Z,18.0390
2023-04-06T00:07:01.738Z,18.0230
2023-04-06T00:07:12.798Z,18.0230
2023-04-06T00:07:23.836Z,18.0290
2023-04-06T00:07:34.891Z,18.0310
2023-04-06T00:07:45.964Z,18.0290
2023-04-06T00:07:57.057Z,18.0290
2023-04-06T00:08:08.092Z,18.0480
2023-04-06T00:08:19.150Z,18.0330
2023-04-06T00:08:30.212Z,18.0300
2023-04-06T00:08:41.243Z,18.0340
2023-04-06T00:08:52.312Z,18.0240
2023-04-06T00:09:03.360Z,18.0340
2023-04-06T00:09:14.428Z,18.0340
2023-04-06T00:09:25.483Z,18.0340
2023-04-06T00:09:36.555Z,18.0490
2023-04-06T00:09:47.619Z,18.0440
2023-04-06T00:09:58.676Z,18.0490
2023-04-06T00:10:09.753Z,18.0490
2023-04-06T00:10:20.800Z,18.0650
2023-04-06T00:10:31.860Z,18.0590
2023-04-06T00:10:42.903Z,18.0490
2023-04-06T00:10:53.965Z,18.0440
2023-04-06T00:11:05.024Z,18.0490
2023-04-06T00:11:16.081Z,18.0440
2023-04-06T00:11:27.130Z,18.0540
2023-04-06T00:11:38.196Z,18.0430
2023-04-06T00:11:49.271Z,18.0580
2023-04-06T00:12:00.346Z,18.0580
2023-04-06T00:12:11.414Z,18.0630
2023-04-06T00:12:22.434Z,18.0700
2023-04-06T00:12:33.479Z,18.0650
2023-04-06T00:12:44.542Z,18.0730
2023-04-06T00:12:55.606Z,18.0680
2023-04-06T00:13:06.682Z,18.0890
2023-04-06T00:13:17.757Z,18.0890
2023-04-06T00:13:28.799Z,18.0840
2023-04-06T00:13:39.884Z,18.0940
2023-04-06T00:13:50.921Z,18.0730
2023-04-06T00:14:01.981Z,18.0680
2023-04-06T00:14:13.076Z,18.0730
2023-04-06T00:14:24.142Z,18.0790
2023-04-06T00:14:35.186Z,18.0940
2023-04-06T00:14:46.257Z,18.1000
2023-04-06T00:14:57.308Z,18.0850
2023-04-06T00:15:08.355Z,18.0850
2023-04-06T00:15:19.402Z,18.0800
2023-04-06T00:15:30.467Z,18.0800
2023-04-06T00:15:41.517Z,18.0700
2023-04-06T00:15:52.553Z,18.0750
2023-04-06T00:16:03.667Z,18.0750
2023-04-06T00:16:14.869Z,18.0850
2023-04-06T00:16:27.616Z,18.0850
2023-04-06T00:16:41.076Z,18.1440
2023-04-06T00:16:52.213Z,18.1260
2023-04-06T00:17:03.373Z,18.1160
2023-04-06T00:17:14.463Z,18.1060
2023-04-06T00:17:25.528Z,18.1160
2023-04-06T00:17:36.630Z,18.1160
2023-04-06T00:17:47.699Z,18.1060
2023-04-06T00:17:58.766Z,18.1110
2023-04-06T00:18:09.844Z,18.1090
2023-04-06T00:18:20.985Z,18.1040
2023-04-06T00:18:32.032Z,18.1040
2023-04-06T00:18:43.100Z,18.1090
2023-04-06T00:18:54.141Z,18.1090
2023-04-06T00:19:05.200Z,18.1090
2023-04-06T00:19:16.283Z,18.1040
2023-04-06T00:19:27.382Z,18.1090
2023-04-06T00:19:38.431Z,18.1040
2023-04-06T00:19:49.483Z,18.1090
2023-04-06T00:20:00.553Z,18.1050
2023-04-06T00:20:11.614Z,18.1150
2023-04-06T00:20:22.671Z,18.1000
2023-04-06T00:20:33.701Z,18.1140
2023-04-06T00:20:44.766Z,18.1090
2023-04-06T00:20:55.830Z,18.1240
2023-04-06T00:21:06.904Z,18.1190
2023-04-06T00:21:17.977Z,18.1190
2023-04-06T00:21:29.046Z,18.1140
2023-04-06T00:21:40.178Z,18.1190
2023-04-06T00:21:51.330Z,18.1190
2023-04-06T00:22:02.422Z,18.1190
2023-04-06T00:22:13.471Z,18.1240
2023-04-06T00:22:24.513Z,18.1240
2023-04-06T00:22:35.553Z,18.1250
2023-04-06T00:22:46.620Z,18.1250
2023-04-06T00:22:57.689Z,18.1300
2023-04-06T00:23:08.729Z,18.1300
2023-04-06T00:23:19.784Z,18.1340
2023-04-06T00:23:30.854Z,18.1290
2023-04-06T00:23:41.919Z,18.1290
2023-04-06T00:23:52.993Z,18.1390
2023-04-06T00:24:04.040Z,18.1390
2023-04-06T00:24:15.088Z,18.1550
2023-04-06T00:24:26.153Z,18.1520
2023-04-06T00:24:37.252Z,18.1520
2023-04-06T00:24:48.310Z,18.1520
2023-04-06T00:24:59.374Z,18.1560
2023-04-06T00:25:10.441Z,18.1550
2023-04-06T00:25:21.541Z,18.1520
2023-04-06T00:25:32.577Z,18.1660
2023-04-06T00:25:43.633Z,18.1620
2023-04-06T00:25:54.704Z,18.1770
2023-04-06T00:26:05.763Z,18.1810
2023-04-06T00:26:16.835Z,18.1770
2023-04-06T00:26:27.878Z,18.1770
2023-04-06T00:26:38.922Z,18.1870
2023-04-06T00:26:49.951Z,18.1910
2023-04-06T00:27:01.019Z,18.1810
2023-04-06T00:27:12.081Z,18.1810
2023-04-06T00:27:23.147Z,18.1770
2023-04-06T00:27:34.220Z,18.1910
2023-04-06T00:27:45.284Z,18.1770
2023-04-06T00:27:56.325Z,18.1870
2023-04-06T00:28:07.389Z,18.1810
2023-04-06T00:28:18.467Z,18.1790
2023-04-06T00:28:29.512Z,18.1690
2023-04-06T00:28:40.581Z,18.1890
2023-04-06T00:28:51.622Z,18.1910
2023-04-06T00:29:02.688Z,18.2110
2023-04-06T00:29:13.741Z,18.2160
2023-04-06T00:29:24.815Z,18.2160
2023-04-06T00:29:35.891Z,18.2040
2023-04-06T00:29:46.940Z,18.2090
2023-04-06T00:29:58.001Z,18.1990
2023-04-06T00:30:09.103Z,18.1900
2023-04-06T00:30:20.186Z,18.2000
2023-04-06T00:30:31.247Z,18.2060
2023-04-06T00:30:42.314Z,18.1950
2023-04-06T00:30:53.387Z,18.2000
2023-04-06T00:31:04.447Z,18.2110
2023-04-06T00:31:15.506Z,18.2110
2023-04-06T00:31:26.574Z,18.2110
2023-04-06T00:31:37.739Z,18.2160
2023-04-06T00:31:48.958Z,18.2060
2023-04-06T00:32:00.145Z,18.2040
2023-04-06T00:32:11.308Z,18.2200
2023-04-06T00:32:22.562Z,18.2200
2023-04-06T00:32:33.697Z,18.2200
2023-04-06T00:32:44.774Z,18.2200
2023-04-06T00:32:55.856Z,18.2300
2023-04-06T00:33:06.994Z,18.2300
2023-04-06T00:33:18.077Z,18.2300
2023-04-06T00:33:29.154Z,18.2310
2023-04-06T00:33:40.209Z,18.2350
2023-04-06T00:33:51.264Z,18.2450
2023-04-06T00:34:02.336Z,18.2310
2023-04-06T00:34:13.399Z,18.2260
2023-04-06T00:34:24.442Z,18.2210
2023-04-06T00:34:35.523Z,18.2310
2023-04-06T00:34:46.692Z,18.2310
2023-04-06T00:34:57.754Z,18.2300
2023-04-06T00:35:08.836Z,18.2450
2023-04-06T00:35:19.905Z,18.2450
2023-04-06T00:35:30.982Z,18.2400
2023-04-06T00:35:42.059Z,18.2500
2023-04-06T00:35:53.149Z,18.2450
2023-04-06T00:36:04.282Z,18.2350
2023-04-06T00:36:15.349Z,18.2450
2023-04-06T00:36:26.395Z,18.2400
2023-04-06T00:36:37.472Z,18.2500
2023-04-06T00:36:48.504Z,18.2500
2023-04-06T00:36:59.555Z,18.2400
2023-04-06T00:37:10.619Z,18.2550
2023-04-06T00:37:21.719Z,18.2600
2023-04-06T00:37:32.732Z,18.2600
2023-04-06T00:37:43.796Z,18.2500
2023-04-06T00:37:54.864Z,18.2450
2023-04-06T00:38:05.942Z,18.2650
2023-04-06T00:38:16.992Z,18.2700
2023-04-06T00:38:28.069Z,18.2750
2023-04-06T00:38:39.104Z,18.2700
2023-04-06T00:38:50.167Z,18.2600
2023-04-06T00:39:01.210Z,18.2600
2023-04-06T00:39:12.278Z,18.2600
2023-04-06T00:39:23.326Z,18.2600
2023-04-06T00:39:34.382Z,18.2650
2023-04-06T00:39:45.433Z,18.2600
2023-04-06T00:39:56.545Z,18.2600
2023-04-06T00:40:07.631Z,18.2750
2023-04-06T00:40:18.654Z,18.2720
2023-04-06T00:40:29.742Z,18.2600
2023-04-06T00:40:40.780Z,18.2700
2023-04-06T00:40:51.848Z,18.2700
2023-04-06T00:41:02.922Z,18.2720
2023-04-06T00:41:13.962Z,18.2770
2023-04-06T00:41:25.020Z,18.2980
2023-04-06T00:41:36.109Z,18.3060
2023-04-06T00:41:47.175Z,18.3010
2023-04-06T00:41:58.251Z,18.3010
2023-04-06T00:42:09.315Z,18.3010
2023-04-06T00:42:20.396Z,18.3000
2023-04-06T00:42:31.455Z,18.3050
2023-04-06T00:42:42.536Z,18.3200
2023-04-06T00:42:53.602Z,18.3100
2023-04-06T00:43:04.653Z,18.3150
2023-04-06T00:43:15.722Z,18.3150
2023-04-06T00:43:26.788Z,18.3240
2023-04-06T00:43:37.873Z,18.3240
2023-04-06T00:43:48.927Z,18.3390
2023-04-06T00:43:59.985Z,18.3390
2023-04-06T00:44:11.046Z,18.3500
2023-04-06T00:44:22.093Z,18.3600
2023-04-06T00:44:33.153Z,18.3540
2023-04-06T00:44:44.196Z,18.3440
2023-04-06T00:44:55.262Z,18.3500
2023-04-06T00:45:06.323Z,18.3290
2023-04-06T00:45:17.384Z,18.3390
2023-04-06T00:45:28.432Z,18.3510
2023-04-06T00:45:39.483Z,18.3450
2023-04-06T00:45:50.591Z,18.3410
2023-04-06T00:46:01.694Z,18.3460
2023-04-06T00:46:12.763Z,18.3420
2023-04-06T00:46:23.942Z,18.3460
2023-04-06T00:46:35.180Z,18.3370
2023-04-06T00:46:46.295Z,18.3430
2023-04-06T00:46:57.362Z,18.3330
2023-04-06T00:47:08.430Z,18.3430
2023-04-06T00:47:19.483Z,18.3470
2023-04-06T00:47:30.578Z,18.3430
2023-04-06T00:47:41.650Z,18.3350
2023-04-06T00:47:52.799Z,18.3250
2023-04-06T00:48:03.942Z,18.3350
2023-04-06T00:48:15.010Z,18.3310
2023-04-06T00:48:26.088Z,18.3310
2023-04-06T00:48:37.144Z,18.3310
2023-04-06T00:48:48.219Z,18.3250
2023-04-06T00:48:59.293Z,18.3360
2023-04-06T00:49:10.349Z,18.3400
2023-04-06T00:49:21.443Z,18.3400
2023-04-06T00:49:32.494Z,18.3350
2023-04-06T00:49:43.545Z,18.3310
2023-04-06T00:49:54.621Z,18.3250
2023-04-06T00:50:05.705Z,18.3350
2023-04-06T00:50:16.773Z,18.3430
2023-04-06T00:50:27.811Z,18.3470
2023-04-06T00:50:38.874Z,18.3530
2023-04-06T00:50:49.960Z,18.3470
2023-04-06T00:51:01.032Z,18.3470
2023-04-06T00:51:12.094Z,18.3530
2023-04-06T00:51:23.123Z,18.3470
2023-04-06T00:51:34.176Z,18.3470
2023-04-06T00:51:45.240Z,18.3530
2023-04-06T00:51:56.270Z,18.3520
2023-04-06T00:52:07.325Z,18.3660
2023-04-06T00:52:18.394Z,18.3660
2023-04-06T00:52:29.454Z,18.3660
2023-04-06T00:52:40.510Z,18.3660
2023-04-06T00:52:51.569Z,18.3710
2023-04-06T00:53:02.628Z,18.3760
2023-04-06T00:53:13.696Z,18.3820
2023-04-06T00:53:24.756Z,18.3760
2023-04-06T00:53:35.843Z,18.3710
2023-04-06T00:53:46.880Z,18.3760
2023-04-06T00:53:57.931Z,18.3780
2023-04-06T00:54:08.970Z,18.3780
2023-04-06T00:54:20.033Z,18.3870
2023-04-06T00:54:31.063Z,18.4020
2023-04-06T00:54:42.124Z,18.4010
2023-04-06T00:54:53.155Z,18.4010
2023-04-06T00:55:04.228Z,18.4060
2023-04-06T00:55:15.319Z,18.4020
2023-04-06T00:55:26.385Z,18.3970
2023-04-06T00:55:37.506Z,18.4020
2023-04-06T00:55:48.516Z,18.3870
2023-04-06T00:55:59.586Z,18.3870
2023-04-06T00:56:10.628Z,18.3870
2023-04-06T00:56:21.669Z,18.3880
2023-04-06T00:56:32.742Z,18.3780
2023-04-06T00:56:43.814Z,18.3880
2023-04-06T00:56:54.877Z,18.3830
2023-04-06T00:57:05.949Z,18.3830
2023-04-06T00:57:17.009Z,18.3930
2023-04-06T00:57:28.051Z,18.3880
2023-04-06T00:57:39.097Z,18.3930
2023-04-06T00:57:50.149Z,18.3930
2023-04-06T00:58:01.203Z,18.4030
2023-04-06T00:58:12.276Z,18.4030
2023-04-06T00:58:23.343Z,18.3980
2023-04-06T00:58:34.379Z,18.3920
2023-04-06T00:58:45.457Z,18.4120
2023-04-06T00:58:56.547Z,18.3970
2023-04-06T00:59:07.863Z,18.4020
2023-04-06T00:59:19.190Z,18.4260
2023-04-06T00:59:30.250Z,18.4260
2023-04-06T00:59:41.332Z,18.4160
2023-04-06T00:59:52.370Z,18.4160
2023-04-06T01:00:03.444Z,18.4210
2023-04-06T01:00:14.483Z,18.4310
2023-04-06T01:00:25.546Z,18.4260
2023-04-06T01:00:36.601Z,18.4260
2023-04-06T01:00:47.658Z,18.4260
2023-04-06T01:00:58.721Z,18.4210
2023-04-06T01:01:09.856Z,18.4260
2023-04-06T01:01:20.939Z,18.4310
2023-04-06T01:01:32.080Z,18.4400
2023-04-06T01:01:43.123Z,18.4400
2023-04-06T01:01:54.321Z,18.4450
2023-04-06T01:02:05.394Z,18.4400
2023-04-06T01:02:16.469Z,18.4400
2023-04-06T01:02:27.625Z,18.4350
2023-04-06T01:02:38.834Z,18.4450
2023-04-06T01:02:49.952Z,18.4550
2023-04-06T01:03:01.082Z,18.4500
2023-04-06T01:03:12.140Z,18.4450
2023-04-06T01:03:23.190Z,18.4450
2023-04-06T01:03:34.247Z,18.4410
2023-04-06T01:03:45.325Z,18.4510
2023-04-06T01:03:56.393Z,18.4510
2023-04-06T01:04:07.457Z,18.4370
2023-04-06T01:04:18.526Z,18.4460
2023-04-06T01:04:29.576Z,18.4460
2023-04-06T01:04:40.616Z,18.4260
2023-04-06T01:04:51.677Z,18.4320
2023-04-06T01:05:02.783Z,18.4220
2023-04-06T01:05:13.859Z,18.4420
2023-04-06T01:05:24.999Z,18.4470
2023-04-06T01:05:36.156Z,18.4470
2023-04-06T01:05:47.341Z,18.4580
2023-04-06T01:05:58.426Z,18.4720
2023-04-06T01:06:09.485Z,18.4670
2023-04-06T01:06:20.525Z,18.4560
2023-04-06T01:06:31.597Z,18.4630
2023-04-06T01:06:42.627Z,18.4420
2023-04-06T01:06:53.709Z,18.4470
2023-04-06T01:07:04.787Z,18.4440
2023-04-06T01:07:15.821Z,18.4490
2023-04-06T01:07:26.900Z,18.4490
2023-04-06T01:07:37.964Z,18.4440
2023-04-06T01:07:49.046Z,18.4390
2023-04-06T01:08:00.102Z,18.4370
2023-04-06T01:08:11.139Z,18.4320
2023-04-06T01:08:22.195Z,18.4390
2023-04-06T01:08:33.238Z,18.4280
2023-04-06T01:08:44.306Z,18.4260
2023-04-06T01:08:55.370Z,18.4310
2023-04-06T01:09:06.872Z,18.4310
2023-04-06T01:09:18.144Z,18.4370
2023-04-06T01:09:29.220Z,18.4310
2023-04-06T01:09:40.278Z,18.4210
2023-04-06T01:09:51.353Z,18.4370
2023-04-06T01:10:02.411Z,18.4210
2023-04-06T01:10:13.468Z,18.4310
2023-04-06T01:10:24.512Z,18.4370
2023-04-06T01:10:35.616Z,18.4210
2023-04-06T01:10:46.660Z,18.4260
2023-04-06T01:10:57.897Z,18.4260
2023-04-06T01:11:08.937Z,18.4260
2023-04-06T01:11:20.024Z,18.4370
2023-04-06T01:11:31.078Z,18.4310
2023-04-06T01:11:42.125Z,18.4370
2023-04-06T01:11:53.194Z,18.4470
2023-04-06T01:12:04.239Z,18.4370
2023-04-06T01:12:15.281Z,18.4470
2023-04-06T01:12:26.346Z,18.4590
2023-04-06T01:12:37.423Z,18.4580
2023-04-06T01:12:48.457Z,18.4470
2023-04-06T01:12:59.522Z,18.4530
2023-04-06T01:13:10.576Z,18.4370
2023-04-06T01:13:21.649Z,18.4330
2023-04-06T01:13:32.705Z,18.4490
2023-04-06T01:13:43.752Z,18.4440
2023-04-06T01:13:54.819Z,18.4440
2023-04-06T01:14:05.872Z,18.4470
2023-04-06T01:14:16.914Z,18.4420
2023-04-06T01:14:27.976Z,18.4420
2023-04-06T01:14:39.033Z,18.4420
2023-04-06T01:14:50.098Z,18.4420
2023-04-06T01:15:01.148Z,18.4370
2023-04-06T01:15:12.206Z,18.4320
2023-04-06T01:15:23.328Z,18.4370
2023-04-06T01:15:34.407Z,18.4320
2023-04-06T01:15:45.562Z,18.4270
2023-04-06T01:15:56.685Z,18.4280
2023-04-06T01:16:07.770Z,18.4390
2023-04-06T01:16:19.012Z,18.4490
2023-04-06T01:16:30.211Z,18.4440
2023-04-06T01:16:41.388Z,18.4530
2023-04-06T01:16:52.443Z,18.4530
2023-04-06T01:17:03.516Z,18.4630
2023-04-06T01:17:14.561Z,18.4470
2023-04-06T01:17:25.651Z,18.4470
2023-04-06T01:17:36.764Z,18.4470
2023-04-06T01:17:47.855Z,18.4580
2023-04-06T01:17:58.985Z,18.4420
2023-04-06T01:18:10.234Z,18.4580
2023-04-06T01:18:21.347Z,18.4530
2023-04-06T01:18:32.424Z,18.4630
2023-04-06T01:18:43.454Z,18.4460
2023-04-06T01:18:54.699Z,18.4510
2023-04-06T01:19:05.838Z,18.4610
2023-04-06T01:19:16.974Z,18.4600
2023-04-06T01:19:28.047Z,18.4700
2023-04-06T01:19:39.108Z,18.4650
2023-04-06T01:19:50.168Z,18.4750
2023-04-06T01:20:01.229Z,18.4750
2023-04-06T01:20:12.288Z,18.4750
2023-04-06T01:20:23.350Z,18.4750
2023-04-06T01:20:34.424Z,18.4790
2023-04-06T01:20:45.486Z,18.4840
2023-04-06T01:20:56.526Z,18.4740
2023-04-06T01:21:07.576Z,18.4890
2023-04-06T01:21:18.626Z,18.4840
2023-04-06T01:21:29.646Z,18.4790
2023-04-06T01:21:40.706Z,18.4840
2023-04-06T01:21:51.776Z,18.4790
2023-04-06T01:22:02.830Z,18.4840
2023-04-06T01:22:13.900Z,18.4840
2023-04-06T01:22:24.933Z,18.4890
2023-04-06T01:22:35.986Z,18.4790
2023-04-06T01:22:47.069Z,18.4840
2023-04-06T01:22:58.132Z,18.4790
2023-04-06T01:23:09.176Z,18.4890
2023-04-06T01:23:20.245Z,18.5000
2023-04-06T01:23:31.307Z,18.5100
2023-04-06T01:23:42.369Z,18.5150
2023-04-06T01:23:53.425Z,18.5100
2023-04-06T01:24:04.496Z,18.5000
2023-04-06T01:24:15.549Z,18.4940
2023-04-06T01:24:26.629Z,18.5000
2023-04-06T01:24:37.663Z,18.5000
2023-04-06T01:24:48.839Z,18.5150
2023-04-06T01:24:59.876Z,18.5150
2023-04-06T01:25:10.945Z,18.5150
2023-04-06T01:25:22.004Z,18.5250
2023-04-06T01:25:33.074Z,18.5350
2023-04-06T01:25:44.143Z,18.5250
2023-04-06T01:25:55.231Z,18.5200
2023-04-06T01:26:06.284Z,18.5060
2023-04-06T01:26:17.335Z,18.5060
2023-04-06T01:26:28.396Z,18.5110
2023-04-06T01:26:39.462Z,18.5060
2023-04-06T01:26:50.524Z,18.4960
2023-04-06T01:27:01.627Z,18.4960
2023-04-06T01:27:12.712Z,18.4960
2023-04-06T01:27:23.762Z,18.4960
2023-04-06T01:27:34.792Z,18.4860
2023-04-06T01:27:45.832Z,18.4860
2023-04-06T01:27:56.886Z,18.4800
2023-04-06T01:28:07.949Z,18.4910
2023-04-06T01:28:19.020Z,18.4960
2023-04-06T01:28:30.084Z,18.5010
2023-04-06T01:28:41.143Z,18.5010
2023-04-06T01:28:52.198Z,18.5060
2023-04-06T01:29:03.269Z,18.5060
2023-04-06T01:29:14.336Z,18.4910
2023-04-06T01:29:25.393Z,18.4910
2023-04-06T01:29:36.454Z,18.4800
2023-04-06T01:29:47.508Z,18.4750
2023-04-06T01:29:58.555Z,18.4670
2023-04-06T01:30:09.601Z,18.4720
2023-04-06T01:30:20.657Z,18.4610
2023-04-06T01:30:31.745Z,18.4580
2023-04-06T01:30:42.856Z,18.4530
2023-04-06T01:30:53.913Z,18.4560
2023-04-06T01:31:05.017Z,18.4720
2023-04-06T01:31:16.115Z,18.4770
2023-04-06T01:31:27.206Z,18.4770
2023-04-06T01:31:38.356Z,18.4720
2023-04-06T01:31:49.568Z,18.4600
2023-04-06T01:32:00.648Z,18.4750
2023-04-06T01:32:11.715Z,18.4700
2023-04-06T01:32:22.799Z,18.4910
2023-04-06T01:32:33.962Z,18.4800
2023-04-06T01:32:45.085Z,18.4860
2023-04-06T01:32:56.204Z,18.4910
2023-04-06T01:33:07.280Z,18.4860
2023-04-06T01:33:18.323Z,18.4750
2023-04-06T01:33:29.378Z,18.4860
2023-04-06T01:33:40.456Z,18.4750
2023-04-06T01:33:51.503Z,18.4650
2023-04-06T01:34:02.578Z,18.4650
2023-04-06T01:34:13.645Z,18.4670
2023-04-06T01:34:24.708Z,18.4560
2023-04-06T01:34:35.795Z,18.4610
2023-04-06T01:34:46.847Z,18.4610
2023-04-06T01:34:57.883Z,18.4510
2023-04-06T01:35:08.938Z,18.4670
2023-04-06T01:35:20.047Z,18.4670
2023-04-06T01:35:31.162Z,18.4670
2023-04-06T01:35:42.356Z,18.4670
2023-04-06T01:35:53.495Z,18.4750
2023-04-06T01:36:04.639Z,18.4650
2023-04-06T01:36:15.747Z,18.4550
2023-04-06T01:36:26.821Z,18.4650
2023-04-06T01:36:37.887Z,18.4650
2023-04-06T01:36:48.960Z,18.4700
2023-04-06T01:37:00.022Z,18.4800
2023-04-06T01:37:11.081Z,18.4700
2023-04-06T01:37:22.158Z,18.4750
2023-04-06T01:37:33.234Z,18.4800
2023-04-06T01:37:44.314Z,18.4750
2023-04-06T01:37:55.340Z,18.4800
2023-04-06T01:38:06.422Z,18.4910
2023-04-06T01:38:17.474Z,18.4750
2023-04-06T01:38:28.534Z,18.4910
2023-04-06T01:38:39.582Z,18.4800
2023-04-06T01:38:50.641Z,18.4910
2023-04-06T01:39:01.699Z,18.4800
2023-04-06T01:39:12.780Z,18.4700
2023-04-06T01:39:23.839Z,18.4750
2023-04-06T01:39:34.903Z,18.4650
2023-04-06T01:39:45.955Z,18.4750
2023-04-06T01:39:57.024Z,18.4750
2023-04-06T01:40:08.119Z,18.4700
2023-04-06T01:40:19.156Z,18.4650
2023-04-06T01:40:30.206Z,18.4650
2023-04-06T01:40:41.246Z,18.4650
2023-04-06T01:40:52.345Z,18.4650
2023-04-06T01:41:03.412Z,18.4670
2023-04-06T01:41:14.448Z,18.4720
2023-04-06T01:41:25.530Z,18.4560
2023-04-06T01:41:36.602Z,18.4600
2023-04-06T01:41:47.653Z,18.4600
2023-04-06T01:41:58.729Z,18.4650
2023-04-06T01:42:09.776Z,18.4650
2023-04-06T01:42:20.820Z,18.4650
2023-04-06T01:42:31.887Z,18.4550
2023-04-06T01:42:42.955Z,18.4550
2023-04-06T01:42:54.001Z,18.4550
2023-04-06T01:43:05.229Z,18.4650
2023-04-06T01:43:16.282Z,18.4600
2023-04-06T01:43:27.339Z,18.4650
2023-04-06T01:43:38.405Z,18.4560
2023-04-06T01:43:49.482Z,18.4600
2023-04-06T01:44:00.550Z,18.4600
2023-04-06T01:44:11.567Z,18.4650
2023-04-06T01:44:22.627Z,18.4740
2023-04-06T01:44:33.700Z,18.4690
2023-04-06T01:44:44.774Z,18.4640
2023-04-06T01:44:55.803Z,18.4690
2023-04-06T01:45:06.871Z,18.4840
2023-04-06T01:45:17.914Z,18.4800
2023-04-06T01:45:28.967Z,18.4910
2023-04-06T01:45:40.032Z,18.4910
2023-04-06T01:45:51.109Z,18.4800
2023-04-06T01:46:02.172Z,18.4650
2023-04-06T01:46:13.365Z,18.4650
2023-04-06T01:46:24.510Z,18.4800
2023-04-06T01:46:35.618Z,18.4700
2023-04-06T01:46:47.075Z,18.4700
2023-04-06T01:46:58.213Z,18.4750
2023-04-06T01:47:09.322Z,18.4700
2023-04-06T01:47:20.384Z,18.4650
2023-04-06T01:47:31.453Z,18.4650
2023-04-06T01:47:42.607Z,18.4600
2023-04-06T01:47:53.734Z,18.4860
2023-04-06T01:48:04.903Z,18.4800
2023-04-06T01:48:16.047Z,18.4750
2023-04-06T01:48:27.074Z,18.4700
2023-04-06T01:48:38.135Z,18.4700
2023-04-06T01:48:49.178Z,18.4650
2023-04-06T01:49:00.244Z,18.4800
2023-04-06T01:49:11.314Z,18.4750
2023-04-06T01:49:22.382Z,18.4750
2023-04-06T01:49:33.439Z,18.4700
2023-04-06T01:49:44.471Z,18.4800
2023-04-06T01:49:55.529Z,18.4800
2023-04-06T01:50:06.592Z,18.4700
2023-04-06T01:50:17.633Z,18.4650
2023-04-06T01:50:28.685Z,18.4750
2023-04-06T01:50:39.745Z,18.4700
2023-04-06T01:50:50.800Z,18.4600
2023-04-06T01:51:01.943Z,18.4650
2023-04-06T01:51:12.960Z,18.4650
2023-04-06T01:51:24.037Z,18.4600
2023-04-06T01:51:35.079Z,18.4640
2023-04-06T01:51:46.135Z,18.4690
2023-04-06T01:51:57.212Z,18.4640
2023-04-06T01:52:08.265Z,18.4790
2023-04-06T01:52:19.337Z,18.4840
2023-04-06T01:52:30.414Z,18.4790
2023-04-06T01:52:41.457Z,18.4790
2023-04-06T01:52:52.523Z,18.4790
2023-04-06T01:53:03.599Z,18.4890
2023-04-06T01:53:14.645Z,18.4890
2023-04-06T01:53:25.716Z,18.4890
2023-04-06T01:53:36.777Z,18.4890
2023-04-06T01:53:47.847Z,18.4790
2023-04-06T01:53:58.931Z,18.4840
2023-04-06T01:54:09.987Z,18.4840
2023-04-06T01:54:21.058Z,18.4790
2023-04-06T01:54:32.112Z,18.4790
2023-04-06T01:54:43.183Z,18.4840
2023-04-06T01:54:54.252Z,18.4790
2023-04-06T01:55:05.315Z,18.4890
2023-04-06T01:55:16.388Z,18.5000
2023-04-06T01:55:27.446Z,18.4940
2023-04-06T01:55:38.493Z,18.4890
2023-04-06T01:55:49.546Z,18.4940
2023-04-06T01:56:00.621Z,18.4890
2023-04-06T01:56:11.722Z,18.4890
2023-04-06T01:56:22.761Z,18.5000
2023-04-06T01:56:33.819Z,18.5050
2023-04-06T01:56:44.873Z,18.4970
2023-04-06T01:56:55.955Z,18.5000
2023-04-06T01:57:06.993Z,18.4940
2023-04-06T01:57:18.048Z,18.5050
2023-04-06T01:57:29.116Z,18.4890
2023-04-06T01:57:40.195Z,18.5050
2023-04-06T01:57:51.256Z,18.4940
2023-04-06T01:58:02.318Z,18.4940
2023-04-06T01:58:13.375Z,18.5000
2023-04-06T01:58:24.410Z,18.5050
2023-04-06T01:58:35.484Z,18.4940
2023-04-06T01:58:46.550Z,18.5100
2023-04-06T01:58:57.666Z,18.4940
2023-04-06T01:59:09.194Z,18.5100
2023-04-06T01:59:20.755Z,18.5350
2023-04-06T01:59:31.836Z,18.5220
2023-04-06T01:59:42.983Z,18.5220
2023-04-06T01:59:54.121Z,18.5270
2023-04-06T02:00:05.162Z,18.5270
2023-04-06T02:00:16.214Z,18.5270
2023-04-06T02:00:27.263Z,18.5220
2023-04-06T02:00:38.370Z,18.5220
2023-04-06T02:00:49.465Z,18.5220
2023-04-06T02:01:00.579Z,18.5270
2023-04-06T02:01:11.660Z,18.5270
2023-04-06T02:01:22.869Z,18.5330
2023-04-06T02:01:34.210Z,18.5430
2023-04-06T02:01:45.292Z,18.5430
2023-04-06T02:01:56.364Z,18.5270
2023-04-06T02:02:07.535Z,18.5070
2023-04-06T02:02:18.665Z,18.5170
2023-04-06T02:02:29.948Z,18.5100
2023-04-06T02:02:41.436Z,18.5050
2023-04-06T02:02:52.495Z,18.5200
2023-04-06T02:03:03.572Z,18.5050
2023-04-06T02:03:14.640Z,18.4940
2023-04-06T02:03:25.685Z,18.4940
2023-04-06T02:03:36.735Z,18.5100
2023-04-06T02:03:47.824Z,18.5000
2023-04-06T02:03:58.874Z,18.5000
2023-04-06T02:04:09.929Z,18.4940
2023-04-06T02:04:20.985Z,18.5000
2023-04-06T02:04:32.034Z,18.5000
2023-04-06T02:04:43.106Z,18.5000
2023-04-06T02:04:54.159Z,18.4940
2023-04-06T02:05:05.237Z,18.4890
2023-04-06T02:05:16.293Z,18.4840
2023-04-06T02:05:27.362Z,18.4940
2023-04-06T02:05:38.416Z,18.5000
2023-04-06T02:05:49.484Z,18.4940
2023-04-06T02:06:00.574Z,18.4890
2023-04-06T02:06:11.618Z,18.4890
2023-04-06T02:06:22.686Z,18.5000
2023-04-06T02:06:33.752Z,18.4940
2023-04-06T02:06:44.836Z,18.4910
2023-04-06T02:06:55.884Z,18.4860
2023-04-06T02:07:06.949Z,18.4860
2023-04-06T02:07:18.001Z,18.4860
2023-04-06T02:07:29.096Z,18.5010
2023-04-06T02:07:40.175Z,18.5000
2023-04-06T02:07:51.228Z,18.4940
2023-04-06T02:08:02.244Z,18.5000
2023-04-06T02:08:13.295Z,18.4960
2023-04-06T02:08:24.370Z,18.5010
2023-04-06T02:08:35.411Z,18.5010
2023-04-06T02:08:46.475Z,18.4960
2023-04-06T02:08:57.541Z,18.5010
2023-04-06T02:09:08.820Z,18.4910
2023-04-06T02:09:20.396Z,18.5010
2023-04-06T02:09:31.445Z,18.4960
2023-04-06T02:09:42.504Z,18.4800
2023-04-06T02:09:53.566Z,18.4910
2023-04-06T02:10:04.619Z,18.4910
2023-04-06T02:10:15.672Z,18.4890
2023-04-06T02:10:26.736Z,18.5000
2023-04-06T02:10:37.802Z,18.5000
2023-04-06T02:10:48.862Z,18.4940
2023-04-06T02:10:59.999Z,18.5050
2023-04-06T02:11:11.028Z,18.5200
2023-04-06T02:11:22.113Z,18.5000
2023-04-06T02:11:33.183Z,18.5100
2023-04-06T02:11:44.226Z,18.5150
2023-04-06T02:11:55.265Z,18.5150
2023-04-06T02:12:06.327Z,18.5300
2023-04-06T02:12:17.404Z,18.5300
2023-04-06T02:12:28.446Z,18.5300
2023-04-06T02:12:39.514Z,18.5250
2023-04-06T02:12:50.594Z,18.5300
2023-04-06T02:13:01.645Z,18.5300
2023-04-06T02:13:12.704Z,18.5300
2023-04-06T02:13:23.790Z,18.5350
2023-04-06T02:13:34.840Z,18.5350
2023-04-06T02:13:45.895Z,18.5350
2023-04-06T02:13:56.947Z,18.5350
2023-04-06T02:14:07.995Z,18.5400